createdAt,value
2022-10-20T00:04:12.833Z,6.03
2022-10-20T00:09:14.544Z,5.32
2022-10-20T00:14:16.208Z,5.07
2022-10-20T00:19:17.868Z,5.00
2022-10-20T00:24:21.616Z,5.45
2022-10-20T00:29:23.306Z,5.65
2022-10-20T00:34:25.015Z,5.15
2022-10-20T00:39:26.671Z,4.90
2022-10-20T00:44:54.383Z,5.00
2022-10-20T00:50:01.252Z,4.30
2022-10-20T00:55:03.008Z,5.00
2022-10-20T01:00:06.749Z,5.13
2022-10-20T01:05:08.904Z,3.85
2022-10-20T01:10:11.581Z,4.50
2022-10-20T01:15:25.789Z,3.97
2022-10-20T01:20:39.293Z,4.97
2022-10-20T01:25:54.949Z,4.43
2022-10-20T01:31:03.642Z,4.65
2022-10-20T01:36:27.469Z,4.95
2022-10-20T01:42:11.389Z,4.22
2022-10-20T01:47:14.367Z,3.83
2022-10-20T01:52:17.172Z,4.13
2022-10-20T01:57:33.680Z,3.95
2022-10-20T02:02:53.221Z,3.53
2022-10-20T02:08:12.559Z,3.83
2022-10-20T02:13:16.150Z,4.10
2022-10-20T02:18:27.901Z,4.10
2022-10-20T02:23:35.058Z,3.75
2022-10-20T02:28:43.024Z,3.78
2022-10-20T02:33:46.331Z,4.53
2022-10-20T02:38:48.102Z,3.60
2022-10-20T02:43:49.771Z,3.60
2022-10-20T02:48:51.469Z,3.75
2022-10-20T02:53:54.860Z,3.97
2022-10-20T02:58:57.521Z,3.50
2022-10-20T03:03:59.995Z,3.97
2022-10-20T03:09:01.764Z,3.97
2022-10-20T03:14:03.781Z,4.60
2022-10-20T03:19:07.269Z,4.07
2022-10-20T03:24:10.895Z,3.95
2022-10-20T03:29:12.601Z,4.80
2022-10-20T03:34:14.446Z,4.72
2022-10-20T03:39:16.161Z,4.88
2022-10-20T03:44:17.835Z,4.47
2022-10-20T03:49:19.562Z,5.38
2022-10-20T03:54:21.224Z,5.13
2022-10-20T03:59:24.499Z,5.45
2022-10-20T04:04:28.442Z,6.35
2022-10-20T04:09:30.114Z,6.53
2022-10-20T04:14:31.772Z,5.43
2022-10-20T04:19:33.458Z,5.65
2022-10-20T04:24:35.351Z,5.38
2022-10-20T04:29:37.168Z,5.78
2022-10-20T04:34:39.054Z,5.88
2022-10-20T04:39:40.939Z,6.93
2022-10-20T04:44:42.685Z,6.68
2022-10-20T04:49:44.451Z,5.80
2022-10-20T04:54:46.131Z,7.32
2022-10-20T04:59:47.888Z,6.47
2022-10-20T05:04:49.554Z,6.65
2022-10-20T05:09:51.216Z,7.10
2022-10-20T05:14:52.880Z,7.07
2022-10-20T05:19:54.533Z,7.60
2022-10-20T05:24:58.406Z,7.78
2022-10-20T05:30:06.406Z,7.07
2022-10-20T05:35:08.496Z,7.88
2022-10-20T05:40:10.612Z,7.75
2022-10-20T05:45:12.484Z,7.45
2022-10-20T05:50:14.177Z,8.38
2022-10-20T05:55:15.996Z,7.88
2022-10-20T06:00:23.781Z,7.50
2022-10-20T06:05:25.451Z,8.40
2022-10-20T06:10:27.147Z,7.97
2022-10-20T06:15:28.842Z,9.05
2022-10-20T06:20:30.526Z,10.35
2022-10-20T06:25:32.213Z,8.93
2022-10-20T06:30:33.901Z,10.77
2022-10-20T06:35:35.563Z,10.05
2022-10-20T06:40:37.409Z,11.32
2022-10-20T06:45:39.067Z,12.50
2022-10-20T06:50:40.746Z,12.55
2022-10-20T06:55:42.423Z,13.05
2022-10-20T07:00:44.092Z,14.23
2022-10-20T07:05:48.444Z,12.88
2022-10-20T07:11:11.748Z,12.82
2022-10-20T07:16:17.252Z,11.35
2022-10-20T07:21:30.771Z,11.48
2022-10-20T07:26:39.259Z,11.35
2022-10-20T07:31:44.618Z,10.43
2022-10-20T07:36:46.291Z,12.32
2022-10-20T07:41:48.402Z,12.13
2022-10-20T07:46:50.369Z,11.45
2022-10-20T07:51:52.078Z,13.35
2022-10-20T07:56:53.752Z,12.35
2022-10-20T08:01:57.518Z,14.65
2022-10-20T08:07:01.265Z,12.40
2022-10-20T08:12:04.296Z,13.70
2022-10-20T08:17:06.046Z,12.45
2022-10-20T08:22:07.736Z,8.43
2022-10-20T08:27:09.427Z,9.18
2022-10-20T08:32:13.157Z,9.57
2022-10-20T08:37:14.884Z,9.02
2022-10-20T08:42:17.805Z,9.57
2022-10-20T08:47:32.517Z,9.45
2022-10-20T08:52:35.971Z,9.23
2022-10-20T08:57:38.071Z,14.00
2022-10-20T09:02:40.397Z,15.50
2022-10-20T09:07:42.070Z,11.15
2022-10-20T09:12:46.828Z,10.63
2022-10-20T09:17:55.524Z,11.98
2022-10-20T09:22:57.411Z,13.68
2022-10-20T09:27:59.116Z,10.80
2022-10-20T09:33:01.350Z,15.75
2022-10-20T09:38:22.521Z,9.73
2022-10-20T09:43:26.723Z,8.45
2022-10-20T09:48:32.785Z,9.85
2022-10-20T09:53:41.112Z,9.50
2022-10-20T09:58:47.614Z,7.95
2022-10-20T10:03:56.464Z,6.78
2022-10-20T10:09:00.797Z,4.10
2022-10-20T10:14:03.675Z,3.20
2022-10-20T10:19:06.036Z,1.98
2022-10-20T10:24:30.047Z,1.77
2022-10-20T10:29:36.387Z,1.63
2022-10-20T10:34:45.068Z,1.40
2022-10-20T10:39:46.963Z,1.80
2022-10-20T10:45:02.990Z,1.73
2022-10-20T10:50:23.203Z,1.75
2022-10-20T10:55:59.921Z,1.67
2022-10-20T11:01:37.275Z,4.28
2022-10-20T11:06:42.614Z,1.65
2022-10-20T11:12:12.085Z,1.88
2022-10-20T11:17:56.807Z,1.85
2022-10-20T11:23:23.104Z,2.13
2022-10-20T11:28:44.312Z,1.77
2022-10-20T11:33:51.463Z,1.60
2022-10-20T11:38:56.256Z,2.30
2022-10-20T11:44:14.571Z,1.90
2022-10-20T11:49:16.413Z,1.95
2022-10-20T11:54:54.978Z,1.95
2022-10-20T12:00:27.413Z,2.00
2022-10-20T12:05:39.408Z,2.28
2022-10-20T12:10:58.654Z,2.13
2022-10-20T12:16:00.410Z,3.30
2022-10-20T12:21:03.407Z,2.97
2022-10-20T12:26:32.953Z,2.80
2022-10-20T12:32:11.916Z,2.78
2022-10-20T12:37:26.165Z,3.33
2022-10-20T12:42:33.588Z,2.78
2022-10-20T12:47:37.787Z,3.40
2022-10-20T12:52:40.716Z,2.85
2022-10-20T12:57:43.014Z,4.03
2022-10-20T13:02:47.234Z,4.20
2022-10-20T13:07:48.929Z,3.42
2022-10-20T13:12:50.693Z,3.30
2022-10-20T13:18:02.453Z,2.88
2022-10-20T13:23:04.818Z,3.70
2022-10-20T13:28:23.446Z,3.72
2022-10-20T13:33:58.763Z,3.60
2022-10-20T13:39:28.069Z,4.53
2022-10-20T13:44:44.832Z,4.22
2022-10-20T13:50:06.138Z,4.35
2022-10-20T13:55:16.150Z,4.32
2022-10-20T14:00:22.439Z,5.15
2022-10-20T14:05:25.777Z,6.18
2022-10-20T14:10:53.588Z,5.18
2022-10-20T14:15:58.153Z,5.45
2022-10-20T14:21:05.625Z,6.50
2022-10-20T14:26:15.722Z,5.53
2022-10-20T14:31:22.024Z,7.35
2022-10-20T14:41:35.783Z,6.90
2022-10-20T14:46:45.033Z,7.18
2022-10-20T14:51:59.225Z,8.55
2022-10-20T14:57:22.336Z,8.05
2022-10-20T15:02:27.353Z,8.05
2022-10-20T15:07:34.040Z,8.40
2022-10-20T15:12:36.114Z,7.80
2022-10-20T15:17:47.564Z,7.50
2022-10-20T15:22:52.239Z,8.35
2022-10-20T15:27:57.428Z,9.07
2022-10-20T15:32:59.393Z,8.50
2022-10-20T15:38:01.058Z,8.80
2022-10-20T15:43:03.173Z,8.82
2022-10-20T15:48:05.088Z,7.75
2022-10-20T15:53:06.840Z,9.38
2022-10-20T15:58:08.788Z,9.27
2022-10-20T16:03:17.199Z,9.45
2022-10-20T16:08:18.870Z,9.85
2022-10-20T16:13:21.208Z,9.32
2022-10-20T16:18:22.878Z,10.48
2022-10-20T16:23:24.778Z,10.02
2022-10-20T16:28:26.447Z,10.13
2022-10-20T16:33:28.545Z,10.93
2022-10-20T16:38:30.644Z,9.80
2022-10-20T16:43:36.418Z,10.95
2022-10-20T16:48:41.365Z,10.10
2022-10-20T16:53:44.525Z,9.48
2022-10-20T16:58:46.185Z,10.85
2022-10-20T17:03:52.967Z,10.95
2022-10-20T17:08:55.329Z,11.52
2022-10-20T17:13:57.638Z,16.77
2022-10-20T17:19:01.369Z,13.85
2022-10-20T17:24:03.129Z,16.05
2022-10-20T17:29:05.056Z,15.68
2022-10-20T17:34:06.776Z,14.30
2022-10-20T17:39:08.837Z,13.65
2022-10-20T17:44:10.512Z,16.05
2022-10-20T17:49:12.201Z,15.05
2022-10-20T17:54:14.024Z,13.18
2022-10-20T17:59:15.696Z,14.23
2022-10-20T18:04:18.685Z,12.30
2022-10-20T18:09:20.450Z,13.45
2022-10-20T18:14:22.135Z,12.85
2022-10-20T18:19:23.807Z,12.45
2022-10-20T18:24:25.508Z,12.88
2022-10-20T18:29:27.245Z,12.77
2022-10-20T18:34:28.908Z,13.75
2022-10-20T18:39:34.146Z,12.05
2022-10-20T18:44:35.870Z,12.80
2022-10-20T18:49:37.555Z,13.27
2022-10-20T18:54:39.620Z,13.95
2022-10-20T18:59:41.291Z,11.90
2022-10-20T19:04:42.979Z,12.98
2022-10-20T19:09:44.650Z,13.93
2022-10-20T19:14:46.369Z,13.20
2022-10-20T19:19:48.038Z,13.32
2022-10-20T19:24:49.713Z,13.40
2022-10-20T19:29:51.422Z,13.85
2022-10-20T19:34:53.113Z,13.50
2022-10-20T19:39:54.827Z,13.75
2022-10-20T19:44:56.501Z,14.55
2022-10-20T19:49:58.188Z,14.52
2022-10-20T19:55:01.279Z,13.93
2022-10-20T20:00:03.770Z,14.15
2022-10-20T20:05:06.527Z,12.85
2022-10-20T20:10:10.176Z,14.63
2022-10-20T20:15:11.879Z,12.20
2022-10-20T20:20:13.589Z,14.60
2022-10-20T20:25:15.624Z,14.23
2022-10-20T20:30:17.290Z,12.80
2022-10-20T20:35:18.972Z,13.57
2022-10-20T20:40:21.508Z,12.48
2022-10-20T20:45:23.176Z,11.98
2022-10-20T20:50:24.854Z,13.05
2022-10-20T20:55:26.525Z,11.88
2022-10-20T21:00:28.232Z,14.05
2022-10-20T21:05:29.924Z,12.13
2022-10-20T21:10:31.675Z,12.20
2022-10-20T21:15:33.326Z,12.43
2022-10-20T21:20:34.990Z,12.60
2022-10-20T21:25:36.670Z,11.73
2022-10-20T21:30:40.186Z,11.88
2022-10-20T21:35:41.901Z,12.75
2022-10-20T21:40:43.553Z,12.57
2022-10-20T21:45:45.208Z,12.57
2022-10-20T21:50:46.864Z,11.25
2022-10-20T21:55:48.518Z,11.18
2022-10-20T22:00:53.688Z,10.50
2022-10-20T22:05:55.360Z,11.77
2022-10-20T22:10:57.044Z,12.30
2022-10-20T22:15:59.213Z,11.25
2022-10-20T22:21:13.783Z,11.82
2022-10-20T22:26:15.620Z,11.20
2022-10-20T22:31:18.254Z,11.48
2022-10-20T22:36:20.510Z,10.75
2022-10-20T22:41:22.677Z,11.75
2022-10-20T22:46:25.005Z,11.75
2022-10-20T22:51:26.688Z,11.82
2022-10-20T22:56:28.458Z,11.68
2022-10-20T23:01:30.198Z,12.73
2022-10-20T23:06:31.929Z,11.70
2022-10-20T23:11:34.317Z,11.15
2022-10-20T23:16:35.984Z,10.48
2022-10-20T23:21:37.644Z,10.43
2022-10-20T23:26:39.382Z,10.82
2022-10-20T23:31:41.111Z,10.68
2022-10-20T23:36:42.790Z,10.32
2022-10-20T23:41:44.639Z,10.02
2022-10-20T23:46:46.334Z,9.40
2022-10-20T23:51:48.075Z,10.80
2022-10-20T23:56:49.739Z,10.25
